createdAt,value
2018-06-15T00:00:22.188Z,15.99
2018-06-15T00:01:22.381Z,16.03
2018-06-15T00:02:22.564Z,15.87
2018-06-15T00:03:22.747Z,15.93
2018-06-15T00:04:22.921Z,15.81
2018-06-15T00:05:23.111Z,15.83
2018-06-15T00:06:23.271Z,15.66
2018-06-15T00:07:23.498Z,15.66
2018-06-15T00:08:23.637Z,15.70
2018-06-15T00:09:23.834Z,15.62
2018-06-15T00:10:23.981Z,15.60
2018-06-15T00:11:24.162Z,15.69
2018-06-15T00:12:24.338Z,15.66
2018-06-15T00:13:24.515Z,15.73
2018-06-15T00:14:24.700Z,15.76
2018-06-15T00:15:24.889Z,15.70
2018-06-15T00:16:25.059Z,15.77
2018-06-15T00:17:25.273Z,15.80
2018-06-15T00:18:25.490Z,15.70
2018-06-15T00:19:25.602Z,15.73
2018-06-15T00:20:25.769Z,15.72
2018-06-15T00:21:25.953Z,15.70
2018-06-15T00:22:26.171Z,15.84
2018-06-15T00:23:26.304Z,15.93
2018-06-15T00:24:26.512Z,15.88
2018-06-15T00:25:26.689Z,15.83
2018-06-15T00:26:26.855Z,15.83
2018-06-15T00:27:27.040Z,15.76
2018-06-15T00:28:27.256Z,15.80
2018-06-15T00:29:27.383Z,15.77
2018-06-15T00:30:27.580Z,15.77
2018-06-15T00:31:27.828Z,15.66
2018-06-15T00:32:27.936Z,15.77
2018-06-15T00:33:28.125Z,15.81
2018-06-15T00:34:28.290Z,15.70
2018-06-15T00:35:28.521Z,15.78
2018-06-15T00:36:28.677Z,15.78
2018-06-15T00:37:28.839Z,15.77
2018-06-15T00:38:29.049Z,15.81
2018-06-15T00:39:29.198Z,15.85
2018-06-15T00:40:29.403Z,15.88
2018-06-15T00:41:29.564Z,15.90
2018-06-15T00:42:29.751Z,15.87
2018-06-15T00:43:29.930Z,15.81
2018-06-15T00:44:30.133Z,15.84
2018-06-15T00:45:30.295Z,15.78
2018-06-15T00:46:30.473Z,15.69
2018-06-15T00:47:30.692Z,15.76
2018-06-15T00:48:30.903Z,15.76
2018-06-15T00:49:31.023Z,15.84
2018-06-15T00:50:31.214Z,15.85
2018-06-15T00:51:31.463Z,15.81
2018-06-15T00:52:31.579Z,15.72
2018-06-15T00:53:31.764Z,15.63
2018-06-15T00:54:31.916Z,15.72
2018-06-15T00:55:32.109Z,15.70
2018-06-15T00:56:32.290Z,15.69
2018-06-15T00:57:32.453Z,15.66
2018-06-15T00:58:32.670Z,15.65
2018-06-15T00:59:32.839Z,15.76
2018-06-15T01:00:33.011Z,15.62
2018-06-15T01:01:33.169Z,15.68
2018-06-15T01:02:33.368Z,15.69
2018-06-15T01:03:33.520Z,15.68
2018-06-15T01:04:33.740Z,15.70
2018-06-15T01:05:33.889Z,15.76
2018-06-15T01:06:34.075Z,15.63
2018-06-15T01:07:34.254Z,15.69
2018-06-15T01:08:34.437Z,15.60
2018-06-15T01:09:34.680Z,15.58
2018-06-15T01:10:34.806Z,15.66
2018-06-15T01:11:35.014Z,15.59
2018-06-15T01:12:35.174Z,15.60
2018-06-15T01:13:35.401Z,15.69
2018-06-15T01:14:35.533Z,15.69
2018-06-15T01:15:35.768Z,15.62
2018-06-15T01:16:35.937Z,15.56
2018-06-15T01:17:36.145Z,15.63
2018-06-15T01:18:36.283Z,15.58
2018-06-15T01:19:36.476Z,15.63
2018-06-15T01:20:36.726Z,15.52
2018-06-15T01:21:36.842Z,15.52
2018-06-15T01:22:37.023Z,15.59
2018-06-15T01:23:37.175Z,15.60
2018-06-15T01:24:37.346Z,15.69
2018-06-15T01:25:40.373Z,15.63
2018-06-15T01:26:37.671Z,15.58
2018-06-15T01:27:37.853Z,15.59
2018-06-15T01:28:38.045Z,15.66
2018-06-15T01:29:38.246Z,15.62
2018-06-15T01:30:38.428Z,15.63
2018-06-15T01:31:38.623Z,15.66
2018-06-15T01:32:38.794Z,15.65
2018-06-15T01:33:38.962Z,15.59
2018-06-15T01:34:39.150Z,15.62
2018-06-15T01:35:39.358Z,15.65
2018-06-15T01:36:39.539Z,15.59
2018-06-15T01:37:39.718Z,15.52
2018-06-15T01:38:39.902Z,15.62
2018-06-15T01:39:40.085Z,15.63
2018-06-15T01:40:40.233Z,15.62
2018-06-15T01:41:40.434Z,15.52
2018-06-15T01:42:40.593Z,15.56
2018-06-15T01:43:40.784Z,15.54
2018-06-15T01:44:40.964Z,15.52
2018-06-15T01:45:41.136Z,15.54
2018-06-15T01:46:41.313Z,15.51
2018-06-15T01:47:41.492Z,15.44
2018-06-15T01:48:41.668Z,15.41
2018-06-15T01:49:41.856Z,15.36
2018-06-15T01:50:42.035Z,15.35
2018-06-15T01:51:42.232Z,15.30
2018-06-15T01:52:42.399Z,15.10
2018-06-15T01:53:42.594Z,15.14
2018-06-15T01:54:42.788Z,15.04
2018-06-15T01:55:42.940Z,15.12
2018-06-15T01:56:43.131Z,15.01
2018-06-15T01:57:43.305Z,15.07
2018-06-15T01:58:43.481Z,15.12
2018-06-15T01:59:43.682Z,15.11
2018-06-15T02:00:43.849Z,15.14
2018-06-15T02:01:44.030Z,15.01
2018-06-15T02:02:44.216Z,15.12
2018-06-15T02:03:44.401Z,15.04
2018-06-15T02:04:44.573Z,15.14
2018-06-15T02:05:44.760Z,14.99
2018-06-15T02:06:45.003Z,15.14
2018-06-15T02:07:45.146Z,15.08
2018-06-15T02:08:45.323Z,15.10
2018-06-15T02:09:45.484Z,15.11
2018-06-15T02:10:45.673Z,15.12
2018-06-15T02:11:45.822Z,15.07
2018-06-15T02:12:46.005Z,15.05
2018-06-15T02:13:46.268Z,15.11
2018-06-15T02:14:46.386Z,15.15
2018-06-15T02:15:46.542Z,15.12
2018-06-15T02:16:46.757Z,14.95
2018-06-15T02:17:46.904Z,15.01
2018-06-15T02:18:47.099Z,14.92
2018-06-15T02:19:47.271Z,15.03
2018-06-15T02:20:47.470Z,14.99
2018-06-15T02:21:47.647Z,15.05
2018-06-15T02:22:47.806Z,14.97
2018-06-15T02:23:47.989Z,15.03
2018-06-15T02:24:48.168Z,15.03
2018-06-15T02:25:48.338Z,15.07
2018-06-15T02:26:48.535Z,15.03
2018-06-15T02:27:48.733Z,14.97
2018-06-15T02:28:48.864Z,14.97
2018-06-15T02:29:49.065Z,15.01
2018-06-15T02:30:49.230Z,14.99
2018-06-15T02:31:49.435Z,15.01
2018-06-15T02:32:49.599Z,15.08
2018-06-15T02:33:49.767Z,15.07
2018-06-15T02:34:50.006Z,15.10
2018-06-15T02:35:50.139Z,15.12
2018-06-15T02:36:50.279Z,15.03
2018-06-15T02:37:50.457Z,15.01
2018-06-15T02:38:50.691Z,14.99
2018-06-15T02:39:50.862Z,15.04
2018-06-15T02:40:50.998Z,15.03
2018-06-15T02:41:51.188Z,15.12
2018-06-15T02:42:51.351Z,15.14
2018-06-15T02:43:51.567Z,15.17
2018-06-15T02:44:51.714Z,15.20
2018-06-15T02:45:51.938Z,15.12
2018-06-15T02:46:52.123Z,15.22
2018-06-15T02:47:52.246Z,15.22
2018-06-15T02:48:52.456Z,15.19
2018-06-15T02:49:52.624Z,15.26
2018-06-15T02:50:52.807Z,15.32
2018-06-15T02:51:53.005Z,15.25
2018-06-15T02:52:53.202Z,15.22
2018-06-15T02:53:53.408Z,15.30
2018-06-15T02:54:53.558Z,15.41
2018-06-15T02:55:53.683Z,15.35
2018-06-15T02:56:53.935Z,15.36
2018-06-15T02:57:54.079Z,15.38
2018-06-15T02:58:54.304Z,15.33
2018-06-15T02:59:54.431Z,15.35
2018-06-15T03:00:54.607Z,15.30
2018-06-15T03:01:54.784Z,15.29
2018-06-15T03:02:54.981Z,15.30
2018-06-15T03:03:55.145Z,15.27
2018-06-15T03:04:55.325Z,15.25
2018-06-15T03:05:55.597Z,15.22
2018-06-15T03:06:55.732Z,15.26
2018-06-15T03:07:55.888Z,15.25
2018-06-15T03:08:56.052Z,15.32
2018-06-15T03:09:56.230Z,15.45
2018-06-15T03:10:56.393Z,15.45
2018-06-15T03:11:56.592Z,15.52
2018-06-15T03:12:56.758Z,15.51
2018-06-15T03:13:56.955Z,15.40
2018-06-15T03:14:57.163Z,15.35
2018-06-15T03:15:57.370Z,15.23
2018-06-15T03:16:57.515Z,15.29
2018-06-15T03:17:57.694Z,15.25
2018-06-15T03:18:57.903Z,15.30
2018-06-15T03:19:58.074Z,15.40
2018-06-15T03:20:58.245Z,15.33
2018-06-15T03:21:58.425Z,15.40
2018-06-15T03:22:58.642Z,15.40
2018-06-15T03:23:58.830Z,15.30
2018-06-15T03:24:58.988Z,15.29
2018-06-15T03:25:59.187Z,15.36
2018-06-15T03:26:59.342Z,15.33
2018-06-15T03:27:59.492Z,15.30
2018-06-15T03:28:59.696Z,15.19
2018-06-15T03:29:59.854Z,15.41
2018-06-15T03:31:00.075Z,15.36
2018-06-15T03:32:00.218Z,15.41
2018-06-15T03:33:00.384Z,15.50
2018-06-15T03:34:00.569Z,15.45
2018-06-15T03:35:00.757Z,15.36
2018-06-15T03:36:00.930Z,15.30
2018-06-15T03:37:01.106Z,15.36
2018-06-15T03:38:01.290Z,15.26
2018-06-15T03:39:01.489Z,15.26
2018-06-15T03:40:01.659Z,15.25
2018-06-15T03:41:01.854Z,15.23
2018-06-15T03:42:02.072Z,15.25
2018-06-15T03:43:02.218Z,15.33
2018-06-15T03:44:02.402Z,15.27
2018-06-15T03:45:02.619Z,15.26
2018-06-15T03:46:02.749Z,15.26
2018-06-15T03:47:02.926Z,15.26
2018-06-15T03:48:03.103Z,15.30
2018-06-15T03:49:03.310Z,15.11
2018-06-15T03:50:03.465Z,15.01
2018-06-15T03:51:03.641Z,14.97
2018-06-15T03:52:03.836Z,14.86
2018-06-15T03:53:04.017Z,14.87
2018-06-15T03:54:04.278Z,14.89
2018-06-15T03:55:04.443Z,14.92
2018-06-15T03:56:04.628Z,14.83
2018-06-15T03:57:04.812Z,14.95
2018-06-15T03:58:04.992Z,14.97
2018-06-15T03:59:05.165Z,14.97
2018-06-15T04:00:05.362Z,14.96
2018-06-15T04:01:05.542Z,14.99
2018-06-15T04:02:05.727Z,14.96
2018-06-15T04:03:05.922Z,14.96
2018-06-15T04:04:06.134Z,15.04
2018-06-15T04:05:06.258Z,14.97
2018-06-15T04:06:06.452Z,15.10
2018-06-15T04:07:06.651Z,15.10
2018-06-15T04:08:06.900Z,15.10
2018-06-15T04:09:07.064Z,15.22
2018-06-15T04:10:07.235Z,15.25
2018-06-15T04:11:07.384Z,15.25
2018-06-15T04:12:07.602Z,15.30
2018-06-15T04:13:07.810Z,15.33
2018-06-15T04:14:07.913Z,15.30
2018-06-15T04:15:08.093Z,15.19
2018-06-15T04:16:08.269Z,15.29
2018-06-15T04:17:08.452Z,15.27
2018-06-15T04:18:08.645Z,15.35
2018-06-15T04:19:08.821Z,15.27
2018-06-15T04:20:09.033Z,15.29
2018-06-15T04:21:09.210Z,15.35
2018-06-15T04:22:09.351Z,15.48
2018-06-15T04:23:09.535Z,15.50
2018-06-15T04:24:09.753Z,15.51
2018-06-15T04:25:09.919Z,15.65
2018-06-15T04:26:10.069Z,15.66
2018-06-15T04:27:10.316Z,15.54
2018-06-15T04:28:10.442Z,15.52
2018-06-15T04:29:10.640Z,15.63
2018-06-15T04:30:10.812Z,15.70
2018-06-15T04:31:11.021Z,15.70
2018-06-15T04:32:11.184Z,15.70
2018-06-15T04:33:11.399Z,15.73
2018-06-15T04:34:11.520Z,15.66
2018-06-15T04:35:11.707Z,15.70
2018-06-15T04:36:11.894Z,15.65
2018-06-15T04:37:12.115Z,15.65
2018-06-15T04:38:12.264Z,15.70
2018-06-15T04:39:12.458Z,15.76
2018-06-15T04:40:12.662Z,15.80
2018-06-15T04:41:12.826Z,15.76
2018-06-15T04:42:13.006Z,15.69
2018-06-15T04:43:13.159Z,15.83
2018-06-15T04:44:13.337Z,15.69
2018-06-15T04:45:13.521Z,15.63
2018-06-15T04:46:13.705Z,15.59
2018-06-15T04:47:13.881Z,15.50
2018-06-15T04:48:14.096Z,15.47
2018-06-15T04:49:14.280Z,15.38
2018-06-15T04:50:14.464Z,15.33
2018-06-15T04:51:14.621Z,15.22
2018-06-15T04:52:14.812Z,15.25
2018-06-15T04:53:14.982Z,15.27
2018-06-15T04:54:15.160Z,15.36
2018-06-15T04:55:15.351Z,15.45
2018-06-15T04:56:15.562Z,15.47
2018-06-15T04:57:15.706Z,15.56
2018-06-15T04:58:15.907Z,15.56
2018-06-15T04:59:16.068Z,15.58
2018-06-15T05:00:16.246Z,15.56
2018-06-15T05:01:16.435Z,15.54
2018-06-15T05:02:16.609Z,15.66
2018-06-15T05:03:16.831Z,15.52
2018-06-15T05:04:16.950Z,15.70
2018-06-15T05:05:17.130Z,15.76
2018-06-15T05:06:17.320Z,15.69
2018-06-15T05:07:17.497Z,15.66
2018-06-15T05:08:17.688Z,15.65
2018-06-15T05:09:17.883Z,15.65
2018-06-15T05:10:18.056Z,15.69
2018-06-15T05:11:18.232Z,15.76
2018-06-15T05:12:18.408Z,15.85
2018-06-15T05:13:18.606Z,15.93
2018-06-15T05:14:18.781Z,16.00
2018-06-15T05:15:18.958Z,15.96
2018-06-15T05:16:19.147Z,15.96
2018-06-15T05:17:19.335Z,16.00
2018-06-15T05:18:19.499Z,16.06
2018-06-15T05:19:19.698Z,15.95
2018-06-15T05:20:19.841Z,16.05
2018-06-15T05:21:20.021Z,16.10
2018-06-15T05:22:20.183Z,16.21
2018-06-15T05:23:20.360Z,16.32
2018-06-15T05:24:20.595Z,16.36
2018-06-15T05:25:20.724Z,16.47
2018-06-15T05:26:20.911Z,16.55
2018-06-15T05:27:21.134Z,16.57
2018-06-15T05:28:21.303Z,16.65
2018-06-15T05:29:21.487Z,16.65
2018-06-15T05:30:21.669Z,16.76
2018-06-15T05:31:21.867Z,16.79
2018-06-15T05:32:22.055Z,16.88
2018-06-15T05:33:22.199Z,17.04
2018-06-15T05:34:22.393Z,16.95
2018-06-15T05:35:22.645Z,16.91
2018-06-15T05:36:22.746Z,16.83
2018-06-15T05:37:22.949Z,16.77
2018-06-15T05:38:23.108Z,16.74
2018-06-15T05:39:23.303Z,16.82
2018-06-15T05:40:23.515Z,16.90
2018-06-15T05:41:23.662Z,17.06
2018-06-15T05:42:23.840Z,17.07
2018-06-15T05:43:24.064Z,17.06
2018-06-15T05:44:24.195Z,17.17
2018-06-15T05:45:24.375Z,17.27
2018-06-15T05:46:24.553Z,17.35
2018-06-15T05:47:24.774Z,17.28
2018-06-15T05:48:24.917Z,17.25
2018-06-15T05:49:25.124Z,17.34
2018-06-15T05:50:25.286Z,17.28
2018-06-15T05:51:25.495Z,17.45
2018-06-15T05:52:25.645Z,17.39
2018-06-15T05:53:25.847Z,17.43
2018-06-15T05:54:26.008Z,17.46
2018-06-15T05:55:26.211Z,17.39
2018-06-15T05:56:26.375Z,17.38
2018-06-15T05:57:26.564Z,17.41
2018-06-15T05:58:26.739Z,17.28
2018-06-15T05:59:26.913Z,17.31
2018-06-15T06:00:27.100Z,17.28
2018-06-15T06:01:27.290Z,17.25
2018-06-15T06:02:27.449Z,17.27
2018-06-15T06:03:27.632Z,17.35
2018-06-15T06:04:27.820Z,17.35
2018-06-15T06:05:28.008Z,17.43
2018-06-15T06:06:28.170Z,17.37
2018-06-15T06:07:28.350Z,17.49
2018-06-15T06:08:28.563Z,17.52
2018-06-15T06:09:28.754Z,17.63
2018-06-15T06:10:28.895Z,17.63
2018-06-15T06:11:29.080Z,17.45
2018-06-15T06:12:29.481Z,17.53
2018-06-15T06:13:29.515Z,17.53
2018-06-15T06:14:29.674Z,17.57
2018-06-15T06:15:29.847Z,17.56
2018-06-15T06:16:30.028Z,17.59
2018-06-15T06:17:30.182Z,17.65
2018-06-15T06:18:30.385Z,17.59
2018-06-15T06:19:30.580Z,17.63
2018-06-15T06:20:30.788Z,17.73
2018-06-15T06:21:30.935Z,17.75
2018-06-15T06:22:31.143Z,17.78
2018-06-15T06:23:31.306Z,17.68
2018-06-15T06:24:31.507Z,17.68
2018-06-15T06:25:31.668Z,17.66
2018-06-15T06:26:31.853Z,17.57
2018-06-15T06:27:32.028Z,17.66
2018-06-15T06:28:32.208Z,17.78
2018-06-15T06:29:32.395Z,17.69
2018-06-15T06:30:32.612Z,17.78
2018-06-15T06:31:32.758Z,17.79
2018-06-15T06:32:32.936Z,17.84
2018-06-15T06:33:33.126Z,17.86
2018-06-15T06:34:33.297Z,17.83
2018-06-15T06:35:33.485Z,17.86
2018-06-15T06:36:33.699Z,17.86
2018-06-15T06:37:33.838Z,17.93
2018-06-15T06:38:34.041Z,17.96
2018-06-15T06:39:34.191Z,18.01
2018-06-15T06:40:34.377Z,18.05
2018-06-15T06:41:34.566Z,18.09
2018-06-15T06:42:34.755Z,18.02
2018-06-15T06:43:34.941Z,17.88
2018-06-15T06:44:35.190Z,17.81
2018-06-15T06:45:35.291Z,17.65
2018-06-15T06:46:35.478Z,17.73
2018-06-15T06:47:35.675Z,17.59
2018-06-15T06:48:35.855Z,17.63
2018-06-15T06:49:36.059Z,17.57
2018-06-15T06:50:36.225Z,17.57
2018-06-15T06:51:36.427Z,17.59
2018-06-15T06:52:36.575Z,17.63
2018-06-15T06:53:36.747Z,17.39
2018-06-15T06:54:36.930Z,17.46
2018-06-15T06:55:37.139Z,17.66
2018-06-15T06:56:37.303Z,17.66
2018-06-15T06:57:37.498Z,17.66
2018-06-15T06:58:37.808Z,17.68
2018-06-15T06:59:37.891Z,17.75
2018-06-15T07:00:38.068Z,17.88
2018-06-15T07:01:38.254Z,17.87
2018-06-15T07:02:38.477Z,17.87
2018-06-15T07:03:38.646Z,17.88
2018-06-15T07:04:38.838Z,17.93
2018-06-15T07:05:38.967Z,17.99
2018-06-15T07:06:39.140Z,17.86
2018-06-15T07:07:39.359Z,17.93
2018-06-15T07:08:39.525Z,17.96
2018-06-15T07:09:39.667Z,17.90
2018-06-15T07:10:39.866Z,18.05
2018-06-15T07:11:40.051Z,17.97
2018-06-15T07:12:40.224Z,17.99
2018-06-15T07:13:40.412Z,17.97
2018-06-15T07:14:40.613Z,17.97
2018-06-15T07:15:40.776Z,18.05
2018-06-15T07:16:40.945Z,18.11
2018-06-15T07:17:41.129Z,18.02
2018-06-15T07:18:41.310Z,18.03
2018-06-15T07:19:41.495Z,18.08
2018-06-15T07:20:41.727Z,18.21
2018-06-15T07:21:41.849Z,18.18
2018-06-15T07:22:42.034Z,18.18
2018-06-15T07:23:42.280Z,18.15
2018-06-15T07:24:42.396Z,18.34
2018-06-15T07:25:42.588Z,18.28
2018-06-15T07:26:42.762Z,18.20
2018-06-15T07:27:42.955Z,18.26
2018-06-15T07:28:43.130Z,18.20
2018-06-15T07:29:43.314Z,18.09
2018-06-15T07:30:43.529Z,18.18
2018-06-15T07:31:43.684Z,18.02
2018-06-15T07:32:43.849Z,17.96
2018-06-15T07:33:44.040Z,17.76
2018-06-15T07:34:44.210Z,17.68
2018-06-15T07:35:44.393Z,17.69
2018-06-15T07:36:44.620Z,17.79
2018-06-15T07:37:44.762Z,17.83
2018-06-15T07:38:44.936Z,17.81
2018-06-15T07:39:45.122Z,17.96
2018-06-15T07:40:45.305Z,17.90
2018-06-15T07:41:45.488Z,17.99
2018-06-15T07:42:45.681Z,18.05
2018-06-15T07:43:45.863Z,18.02
2018-06-15T07:44:46.032Z,18.13
2018-06-15T07:45:46.204Z,18.03
2018-06-15T07:46:46.386Z,18.02
2018-06-15T07:47:46.596Z,17.97
2018-06-15T07:48:46.782Z,17.93
2018-06-15T07:49:46.933Z,18.01
2018-06-15T07:50:47.117Z,18.05
2018-06-15T07:51:47.294Z,17.99
2018-06-15T07:52:47.516Z,18.05
2018-06-15T07:53:47.667Z,18.15
2018-06-15T07:54:47.835Z,18.27
2018-06-15T07:55:48.012Z,18.21
2018-06-15T07:56:48.199Z,18.28
2018-06-15T07:57:48.418Z,18.17
2018-06-15T07:58:48.578Z,18.03
2018-06-15T07:59:48.752Z,18.05
2018-06-15T08:00:48.930Z,17.99
2018-06-15T08:01:49.117Z,17.91
2018-06-15T08:02:49.316Z,17.91
2018-06-15T08:03:49.475Z,17.83
2018-06-15T08:04:49.664Z,17.81
2018-06-15T08:05:49.845Z,17.97
2018-06-15T08:06:50.063Z,17.94
2018-06-15T08:07:50.214Z,17.97
2018-06-15T08:08:50.391Z,17.97
2018-06-15T08:09:50.569Z,17.99
2018-06-15T08:10:50.752Z,18.11
2018-06-15T08:11:50.940Z,18.03
2018-06-15T08:12:51.114Z,18.12
2018-06-15T08:13:51.300Z,17.97
2018-06-15T08:14:51.491Z,18.03
2018-06-15T08:15:51.682Z,18.13
2018-06-15T08:16:51.852Z,18.12
2018-06-15T08:17:52.055Z,18.01
2018-06-15T08:18:52.217Z,18.02
2018-06-15T08:19:52.393Z,18.02
2018-06-15T08:20:52.584Z,18.05
2018-06-15T08:21:52.763Z,18.03
2018-06-15T08:22:52.976Z,18.03
2018-06-15T08:23:53.145Z,17.99
2018-06-15T08:24:53.320Z,17.84
2018-06-15T08:25:53.511Z,17.84
2018-06-15T08:26:53.684Z,17.73
2018-06-15T08:27:53.859Z,17.68
2018-06-15T08:28:54.033Z,17.59
2018-06-15T08:29:54.220Z,17.65
2018-06-15T08:30:54.407Z,17.59
2018-06-15T08:31:54.571Z,17.52
2018-06-15T08:32:54.753Z,17.49
2018-06-15T08:33:54.966Z,17.59
2018-06-15T08:34:55.107Z,17.52
2018-06-15T08:35:55.322Z,17.52
2018-06-15T08:36:55.473Z,17.34
2018-06-15T08:37:55.658Z,17.24
2018-06-15T08:38:55.916Z,17.14
2018-06-15T08:39:56.066Z,17.16
2018-06-15T08:40:56.207Z,17.04
2018-06-15T08:41:56.424Z,17.06
2018-06-15T08:42:56.585Z,16.95
2018-06-15T08:43:56.778Z,17.01
2018-06-15T08:44:56.946Z,17.02
2018-06-15T08:45:57.113Z,17.02
2018-06-15T08:46:57.301Z,16.94
2018-06-15T08:47:57.482Z,17.07
2018-06-15T08:48:57.697Z,17.06
2018-06-15T08:49:57.840Z,17.16
2018-06-15T08:50:58.028Z,17.22
2018-06-15T08:51:58.212Z,17.31
2018-06-15T08:52:58.430Z,17.41
2018-06-15T08:53:58.624Z,17.27
2018-06-15T08:54:58.757Z,17.28
2018-06-15T08:55:58.952Z,17.25
2018-06-15T08:56:59.117Z,17.28
2018-06-15T08:57:59.299Z,17.28
2018-06-15T08:58:59.512Z,17.34
2018-06-15T08:59:59.699Z,17.39
2018-06-15T09:00:59.847Z,17.37
2018-06-15T09:02:00.048Z,17.32
2018-06-15T09:03:00.218Z,17.31
2018-06-15T09:04:00.400Z,17.32
2018-06-15T09:05:00.587Z,17.28
2018-06-15T09:06:00.773Z,17.28
2018-06-15T09:07:00.949Z,17.22
2018-06-15T09:08:01.139Z,17.27
2018-06-15T09:09:01.320Z,17.28
2018-06-15T09:10:01.530Z,17.28
2018-06-15T09:11:01.686Z,17.27
2018-06-15T09:12:01.869Z,17.27
2018-06-15T09:13:02.056Z,17.38
2018-06-15T09:14:02.275Z,17.43
2018-06-15T09:15:02.424Z,17.47
2018-06-15T09:16:02.630Z,17.38
2018-06-15T09:17:02.791Z,17.45
2018-06-15T09:18:03.009Z,17.39
2018-06-15T09:19:03.191Z,17.37
2018-06-15T09:20:03.397Z,17.43
2018-06-15T09:21:03.556Z,17.39
2018-06-15T09:22:03.722Z,17.46
2018-06-15T09:23:03.975Z,17.49
2018-06-15T09:24:04.094Z,17.45
2018-06-15T09:25:04.284Z,17.52
2018-06-15T09:26:04.443Z,17.65
2018-06-15T09:27:04.645Z,17.65
2018-06-15T09:28:04.807Z,17.57
2018-06-15T09:29:05.001Z,17.69
2018-06-15T09:30:05.166Z,17.76
2018-06-15T09:31:05.347Z,17.75
2018-06-15T09:32:05.545Z,17.72
2018-06-15T09:33:05.740Z,17.71
2018-06-15T09:34:05.901Z,17.78
2018-06-15T09:35:06.081Z,17.90
2018-06-15T09:36:06.258Z,17.81
2018-06-15T09:37:06.439Z,17.78
2018-06-15T09:38:06.616Z,17.81
2018-06-15T09:39:06.809Z,17.79
2018-06-15T09:40:06.985Z,17.76
2018-06-15T09:41:07.171Z,17.69
2018-06-15T09:42:07.357Z,17.68
2018-06-15T09:43:07.540Z,17.76
2018-06-15T09:44:07.725Z,17.65
2018-06-15T09:45:07.892Z,17.73
2018-06-15T09:46:08.071Z,17.78
2018-06-15T09:47:08.297Z,17.78
2018-06-15T09:48:08.476Z,17.75
2018-06-15T09:49:08.694Z,17.84
2018-06-15T09:50:08.821Z,17.83
2018-06-15T09:51:09.022Z,17.87
2018-06-15T09:52:09.188Z,17.94
2018-06-15T09:53:09.375Z,18.01
2018-06-15T09:54:09.597Z,18.05
2018-06-15T09:55:09.746Z,18.05
2018-06-15T09:56:09.929Z,18.12
2018-06-15T09:57:10.116Z,18.20
2018-06-15T09:58:10.301Z,18.21
2018-06-15T09:59:10.520Z,18.27
2018-06-15T10:00:10.713Z,18.39
2018-06-15T10:01:10.855Z,18.42
2018-06-15T10:02:11.038Z,18.38
2018-06-15T10:03:11.250Z,18.38
2018-06-15T10:04:11.452Z,18.46
2018-06-15T10:05:11.654Z,18.51
2018-06-15T10:06:11.872Z,18.71
2018-06-15T10:07:12.001Z,18.75
2018-06-15T10:08:12.207Z,18.75
2018-06-15T10:09:12.382Z,18.71
2018-06-15T10:10:12.557Z,18.81
2018-06-15T10:11:12.751Z,18.94
2018-06-15T10:12:12.917Z,19.20
2018-06-15T10:13:13.120Z,19.27
2018-06-15T10:14:13.291Z,19.44
2018-06-15T10:15:13.500Z,19.45
2018-06-15T10:16:13.661Z,19.52
2018-06-15T10:17:13.869Z,19.45
2018-06-15T10:18:14.026Z,19.44
2018-06-15T10:19:15.016Z,19.45
2018-06-15T10:20:14.434Z,19.52
2018-06-15T10:21:14.659Z,19.44
2018-06-15T10:22:14.801Z,19.41
2018-06-15T10:23:15.041Z,19.38
2018-06-15T10:24:15.167Z,19.63
2018-06-15T10:25:15.358Z,19.70
2018-06-15T10:26:15.545Z,19.81
2018-06-15T10:27:15.809Z,19.87
2018-06-15T10:28:15.914Z,19.96
2018-06-15T10:29:16.102Z,19.92
2018-06-15T10:30:16.283Z,20.00
2018-06-15T10:31:16.484Z,20.09
2018-06-15T10:32:16.659Z,19.96
2018-06-15T10:33:16.852Z,20.09
2018-06-15T10:34:17.092Z,20.19
2018-06-15T10:35:17.235Z,20.08
2018-06-15T10:36:17.398Z,20.08
2018-06-15T10:37:17.620Z,20.19
2018-06-15T10:38:17.773Z,20.25
2018-06-15T10:39:18.015Z,20.17
2018-06-15T10:40:18.154Z,20.17
2018-06-15T10:41:18.342Z,20.41
2018-06-15T10:42:18.554Z,20.58
2018-06-15T10:43:18.689Z,20.68
2018-06-15T10:44:18.891Z,20.92
2018-06-15T10:45:19.069Z,21.04
2018-06-15T10:46:19.314Z,21.16
2018-06-15T10:47:19.419Z,20.93
2018-06-15T10:48:19.590Z,20.73
2018-06-15T10:49:19.778Z,20.61
2018-06-15T10:50:20.025Z,20.50
2018-06-15T10:51:20.141Z,20.55
2018-06-15T10:52:20.332Z,20.58
2018-06-15T10:53:20.509Z,20.56
2018-06-15T10:54:20.698Z,20.52
2018-06-15T10:55:20.890Z,20.49
2018-06-15T10:56:21.120Z,20.55
2018-06-15T10:57:21.271Z,20.58
2018-06-15T10:58:21.489Z,20.48
2018-06-15T10:59:21.672Z,20.39
2018-06-15T11:00:21.823Z,20.30
2018-06-15T11:01:22.043Z,20.30
2018-06-15T11:02:22.212Z,20.42
2018-06-15T11:03:22.378Z,20.46
2018-06-15T11:04:22.564Z,20.37
2018-06-15T11:05:22.760Z,20.25
2018-06-15T11:06:22.943Z,20.32
2018-06-15T11:07:23.131Z,20.48
2018-06-15T11:08:23.297Z,20.70
2018-06-15T11:09:23.491Z,20.89
2018-06-15T11:10:23.700Z,20.98
2018-06-15T11:11:23.871Z,20.92
2018-06-15T11:12:24.052Z,20.95
2018-06-15T11:13:24.229Z,21.08
2018-06-15T11:14:24.421Z,21.23
2018-06-15T11:15:24.610Z,21.38
2018-06-15T11:16:24.806Z,21.45
2018-06-15T11:17:24.994Z,21.44
2018-06-15T11:18:25.229Z,21.58
2018-06-15T11:19:25.409Z,21.45
2018-06-15T11:20:25.589Z,21.32
2018-06-15T11:21:25.777Z,21.22
2018-06-15T11:22:25.970Z,21.22
2018-06-15T11:23:26.187Z,21.22
2018-06-15T11:24:26.378Z,21.29
2018-06-15T11:25:26.522Z,21.37
2018-06-15T11:26:26.699Z,21.30
2018-06-15T11:27:26.883Z,21.38
2018-06-15T11:28:27.085Z,21.47
2018-06-15T11:29:27.241Z,21.48
2018-06-15T11:30:27.440Z,21.34
2018-06-15T11:31:27.663Z,21.16
2018-06-15T11:32:27.834Z,21.29
2018-06-15T11:33:28.045Z,21.26
2018-06-15T11:34:28.189Z,21.28
2018-06-15T11:35:28.346Z,21.18
2018-06-15T11:36:28.551Z,21.14
2018-06-15T11:37:28.750Z,21.22
2018-06-15T11:38:28.926Z,21.23
2018-06-15T11:39:29.157Z,21.38
2018-06-15T11:40:29.289Z,21.19
2018-06-15T11:41:29.490Z,21.30
2018-06-15T11:42:29.659Z,21.45
2018-06-15T11:43:29.854Z,21.26
2018-06-15T11:44:30.021Z,21.29
2018-06-15T11:45:30.206Z,21.48
2018-06-15T11:46:30.394Z,21.38
2018-06-15T11:47:30.581Z,21.40
2018-06-15T11:48:30.750Z,21.35
2018-06-15T11:49:30.932Z,21.26
2018-06-15T11:50:31.129Z,21.20
2018-06-15T11:51:31.323Z,21.25
2018-06-15T11:52:31.515Z,21.18
2018-06-15T11:53:31.726Z,21.22
2018-06-15T11:54:31.903Z,21.20
2018-06-15T11:55:32.059Z,21.19
2018-06-15T11:56:32.243Z,21.28
2018-06-15T11:57:32.551Z,21.26
2018-06-15T11:58:32.716Z,21.32
2018-06-15T11:59:32.866Z,21.35
2018-06-15T12:00:33.075Z,21.40
2018-06-15T12:01:33.266Z,21.35
2018-06-15T12:02:33.581Z,21.34
2018-06-15T12:03:33.612Z,21.32
2018-06-15T12:04:33.827Z,21.20
2018-06-15T12:05:33.977Z,21.20
2018-06-15T12:06:34.175Z,20.97
2018-06-15T12:07:34.372Z,20.93
2018-06-15T12:08:34.549Z,20.90
2018-06-15T12:09:34.755Z,20.89
2018-06-15T12:10:34.920Z,20.86
2018-06-15T12:11:35.131Z,20.83
2018-06-15T12:12:35.310Z,20.64
2018-06-15T12:13:35.511Z,20.64
2018-06-15T12:14:35.707Z,20.65
2018-06-15T12:15:35.863Z,20.74
2018-06-15T12:16:36.039Z,20.79
2018-06-15T12:17:36.223Z,20.80
2018-06-15T12:18:36.407Z,20.79
2018-06-15T12:19:36.596Z,20.85
2018-06-15T12:20:36.820Z,21.01
2018-06-15T12:21:36.981Z,20.89
2018-06-15T12:22:37.197Z,20.80
2018-06-15T12:23:37.405Z,20.77
2018-06-15T12:24:37.605Z,20.82
2018-06-15T12:25:37.745Z,20.89
2018-06-15T12:26:37.968Z,21.04
2018-06-15T12:27:38.124Z,21.00
2018-06-15T12:28:38.339Z,20.97
2018-06-15T12:29:38.453Z,21.07
2018-06-15T12:30:38.676Z,21.23
2018-06-15T12:31:38.825Z,21.28
2018-06-15T12:32:39.020Z,21.28
2018-06-15T12:33:39.204Z,21.44
2018-06-15T12:34:39.371Z,21.38
2018-06-15T12:35:39.582Z,21.34
2018-06-15T12:36:39.791Z,21.30
2018-06-15T12:37:39.972Z,21.28
2018-06-15T12:38:40.106Z,21.22
2018-06-15T12:39:40.300Z,21.28
2018-06-15T12:40:40.465Z,21.22
2018-06-15T12:41:40.650Z,21.26
2018-06-15T12:42:40.842Z,21.28
2018-06-15T12:43:41.038Z,21.26
2018-06-15T12:44:41.210Z,21.25
2018-06-15T12:45:41.424Z,21.23
2018-06-15T12:46:41.576Z,21.18
2018-06-15T12:47:41.773Z,21.22
2018-06-15T12:48:41.974Z,21.18
2018-06-15T12:49:42.136Z,21.28
2018-06-15T12:50:42.354Z,21.28
2018-06-15T12:51:42.533Z,21.37
2018-06-15T12:52:42.719Z,21.43
2018-06-15T12:53:42.858Z,21.45
2018-06-15T12:54:43.039Z,21.50